sensor_id;sensor_type;location;lat;lon;timestamp;pressure;altitude;pressure_sealevel;temperature;humidity
23616;BME280;11985;49.404;7.734;2022-11-20T00:01:37;96754.44;;;3.25;100.00
23616;BME280;11985;49.404;7.734;2022-11-20T00:06:39;96751.97;;;3.32;100.00
23616;BME280;11985;49.404;7.734;2022-11-20T00:11:41;96753.53;;;3.41;100.00
23616;BME280;11985;49.404;7.734;2022-11-20T00:16:44;96749.25;;;3.48;100.00
23616;BME280;11985;49.404;7.734;2022-11-20T00:21:46;96750.03;;;3.57;100.00
23616;BME280;11985;49.404;7.734;2022-11-20T00:26:51;96763.72;;;3.74;100.00
23616;BME280;11985;49.404;7.734;2022-11-20T00:31:54;96757.81;;;3.80;100.00
23616;BME280;11985;49.404;7.734;2022-11-20T00:36:55;96754.22;;;3.81;100.00
23616;BME280;11985;49.404;7.734;2022-11-20T00:41:57;96760.00;;;3.91;100.00
23616;BME280;11985;49.404;7.734;2022-11-20T00:47:00;96756.97;;;4.02;100.00
23616;BME280;11985;49.404;7.734;2022-11-20T00:52:01;96756.25;;;4.08;100.00
23616;BME280;11985;49.404;7.734;2022-11-20T00:57:03;96754.75;;;4.14;100.00
23616;BME280;11985;49.404;7.734;2022-11-20T01:02:06;96760.84;;;4.21;100.00
23616;BME280;11985;49.404;7.734;2022-11-20T01:07:10;96757.72;;;4.26;100.00
23616;BME280;11985;49.404;7.734;2022-11-20T01:12:11;96748.66;;;4.36;100.00
23616;BME280;11985;49.404;7.734;2022-11-20T01:17:14;96749.09;;;4.40;100.00
23616;BME280;11985;49.404;7.734;2022-11-20T01:22:16;96747.13;;;4.42;100.00
23616;BME280;11985;49.404;7.734;2022-11-20T01:27:18;96746.78;;;4.45;100.00
23616;BME280;11985;49.404;7.734;2022-11-20T01:32:21;96737.59;;;4.49;100.00
23616;BME280;11985;49.404;7.734;2022-11-20T01:37:22;96737.25;;;4.52;100.00
23616;BME280;11985;49.404;7.734;2022-11-20T01:42:24;96747.28;;;4.55;100.00
23616;BME280;11985;49.404;7.734;2022-11-20T01:47:55;96731.91;;;4.60;100.00
23616;BME280;11985;49.404;7.734;2022-11-20T01:53:00;96725.28;;;4.58;100.00
23616;BME280;11985;49.404;7.734;2022-11-20T01:58:03;96736.16;;;4.61;100.00
23616;BME280;11985;49.404;7.734;2022-11-20T02:03:09;96734.78;;;4.65;100.00
23616;BME280;11985;49.404;7.734;2022-11-20T02:08:12;96728.22;;;4.69;100.00
23616;BME280;11985;49.404;7.734;2022-11-20T02:13:14;96733.91;;;4.73;100.00
23616;BME280;11985;49.404;7.734;2022-11-20T02:18:35;96734.72;;;4.73;100.00
23616;BME280;11985;49.404;7.734;2022-11-20T02:23:39;96745.94;;;4.74;100.00
23616;BME280;11985;49.404;7.734;2022-11-20T02:28:45;96737.13;;;4.75;100.00
23616;BME280;11985;49.404;7.734;2022-11-20T02:33:47;96728.75;;;4.80;100.00
23616;BME280;11985;49.404;7.734;2022-11-20T02:38:49;96732.97;;;4.81;100.00
23616;BME280;11985;49.404;7.734;2022-11-20T02:43:52;96728.22;;;4.84;100.00
23616;BME280;11985;49.404;7.734;2022-11-20T02:48:54;96732.78;;;4.82;100.00
23616;BME280;11985;49.404;7.734;2022-11-20T02:53:56;96728.38;;;4.83;100.00
23616;BME280;11985;49.404;7.734;2022-11-20T02:58:59;96721.81;;;4.87;100.00
23616;BME280;11985;49.404;7.734;2022-11-20T03:04:01;96723.44;;;4.88;100.00
23616;BME280;11985;49.404;7.734;2022-11-20T03:09:03;96723.63;;;4.86;100.00
23616;BME280;11985;49.404;7.734;2022-11-20T03:14:06;96727.69;;;4.89;100.00
23616;BME280;11985;49.404;7.734;2022-11-20T03:19:07;96729.28;;;4.90;100.00
23616;BME280;11985;49.404;7.734;2022-11-20T03:24:09;96725.69;;;4.91;100.00
23616;BME280;11985;49.404;7.734;2022-11-20T03:29:12;96719.19;;;4.87;100.00
23616;BME280;11985;49.404;7.734;2022-11-20T03:34:13;96721.19;;;4.85;100.00
23616;BME280;11985;49.404;7.734;2022-11-20T03:39:15;96721.81;;;4.87;100.00
23616;BME280;11985;49.404;7.734;2022-11-20T03:44:21;96724.06;;;4.90;100.00
23616;BME280;11985;49.404;7.734;2022-11-20T03:49:22;96721.06;;;4.93;100.00
23616;BME280;11985;49.404;7.734;2022-11-20T03:54:24;96727.28;;;4.92;100.00
23616;BME280;11985;49.404;7.734;2022-11-20T03:59:27;96709.63;;;4.94;100.00
23616;BME280;11985;49.404;7.734;2022-11-20T04:04:28;96718.84;;;4.90;100.00
23616;BME280;11985;49.404;7.734;2022-11-20T04:09:30;96721.81;;;4.87;100.00
23616;BME280;11985;49.404;7.734;2022-11-20T04:14:32;96720.81;;;4.88;100.00
23616;BME280;11985;49.404;7.734;2022-11-20T04:19:34;96728.84;;;4.86;100.00
23616;BME280;11985;49.404;7.734;2022-11-20T04:24:36;96719.47;;;4.92;100.00
23616;BME280;11985;49.404;7.734;2022-11-20T04:29:39;96724.41;;;5.01;100.00
23616;BME280;11985;49.404;7.734;2022-11-20T04:34:40;96715.09;;;5.14;100.00
23616;BME280;11985;49.404;7.734;2022-11-20T04:39:43;96716.41;;;5.24;100.00
23616;BME280;11985;49.404;7.734;2022-11-20T04:44:46;96710.00;;;5.27;100.00
23616;BME280;11985;49.404;7.734;2022-11-20T04:49:47;96710.44;;;5.30;100.00
23616;BME280;11985;49.404;7.734;2022-11-20T04:54:49;96718.66;;;5.27;100.00
23616;BME280;11985;49.404;7.734;2022-11-20T04:59:54;96712.00;;;5.25;100.00
23616;BME280;11985;49.404;7.734;2022-11-20T05:04:55;96715.97;;;5.21;100.00
23616;BME280;11985;49.404;7.734;2022-11-20T05:09:57;96717.34;;;5.17;100.00
23616;BME280;11985;49.404;7.734;2022-11-20T05:15:00;96716.28;;;5.11;100.00
23616;BME280;11985;49.404;7.734;2022-11-20T05:20:02;96709.00;;;5.07;100.00
23616;BME280;11985;49.404;7.734;2022-11-20T05:25:04;96709.41;;;5.10;100.00
23616;BME280;11985;49.404;7.734;2022-11-20T05:30:08;96708.31;;;5.19;100.00
23616;BME280;11985;49.404;7.734;2022-11-20T05:35:10;96706.91;;;5.17;100.00
23616;BME280;11985;49.404;7.734;2022-11-20T05:40:12;96705.22;;;5.30;100.00
23616;BME280;11985;49.404;7.734;2022-11-20T05:45:15;96715.22;;;5.27;100.00
23616;BME280;11985;49.404;7.734;2022-11-20T05:50:17;96702.91;;;5.21;100.00
23616;BME280;11985;49.404;7.734;2022-11-20T05:55:19;96700.22;;;5.14;100.00
23616;BME280;11985;49.404;7.734;2022-11-20T06:00:21;96704.66;;;5.14;100.00
23616;BME280;11985;49.404;7.734;2022-11-20T06:05:23;96704.19;;;5.10;100.00
23616;BME280;11985;49.404;7.734;2022-11-20T06:10:25;96722.31;;;5.12;100.00
23616;BME280;11985;49.404;7.734;2022-11-20T06:15:27;96716.63;;;5.08;100.00
23616;BME280;11985;49.404;7.734;2022-11-20T06:20:29;96706.56;;;5.05;100.00
23616;BME280;11985;49.404;7.734;2022-11-20T06:25:30;96711.88;;;5.12;100.00
23616;BME280;11985;49.404;7.734;2022-11-20T06:30:33;96707.72;;;5.17;100.00
23616;BME280;11985;49.404;7.734;2022-11-20T06:35:35;96702.66;;;5.16;100.00
23616;BME280;11985;49.404;7.734;2022-11-20T06:40:39;96703.47;;;5.16;100.00
23616;BME280;11985;49.404;7.734;2022-11-20T06:45:42;96711.13;;;5.18;100.00
23616;BME280;11985;49.404;7.734;2022-11-20T06:50:44;96713.53;;;5.19;100.00
23616;BME280;11985;49.404;7.734;2022-11-20T06:55:46;96723.63;;;5.22;100.00
23616;BME280;11985;49.404;7.734;2022-11-20T07:00:49;96724.97;;;5.18;100.00
23616;BME280;11985;49.404;7.734;2022-11-20T07:05:51;96727.94;;;5.15;100.00
23616;BME280;11985;49.404;7.734;2022-11-20T07:10:52;96733.06;;;5.23;100.00
23616;BME280;11985;49.404;7.734;2022-11-20T07:16:01;96732.44;;;5.21;100.00
23616;BME280;11985;49.404;7.734;2022-11-20T07:21:04;96733.06;;;5.23;100.00
23616;BME280;11985;49.404;7.734;2022-11-20T07:26:07;96743.38;;;5.32;100.00
23616;BME280;11985;49.404;7.734;2022-11-20T07:31:10;96737.81;;;5.35;100.00
23616;BME280;11985;49.404;7.734;2022-11-20T07:36:13;96736.50;;;5.24;100.00
23616;BME280;11985;49.404;7.734;2022-11-20T07:41:15;96730.56;;;5.15;100.00
23616;BME280;11985;49.404;7.734;2022-11-20T07:46:17;96743.25;;;5.18;100.00
23616;BME280;11985;49.404;7.734;2022-11-20T07:51:19;96755.38;;;5.26;100.00
23616;BME280;11985;49.404;7.734;2022-11-20T07:56:20;96756.28;;;5.33;100.00
23616;BME280;11985;49.404;7.734;2022-11-20T08:01:23;96755.09;;;5.36;100.00
23616;BME280;11985;49.404;7.734;2022-11-20T08:06:25;96763.53;;;5.38;100.00
23616;BME280;11985;49.404;7.734;2022-11-20T08:11:27;96775.78;;;5.37;100.00
23616;BME280;11985;49.404;7.734;2022-11-20T08:16:48;96774.88;;;5.45;100.00
23616;BME280;11985;49.404;7.734;2022-11-20T08:21:50;96782.59;;;5.53;100.00
23616;BME280;11985;49.404;7.734;2022-11-20T08:26:51;96786.19;;;5.52;100.00
23616;BME280;11985;49.404;7.734;2022-11-20T08:31:55;96791.03;;;5.55;100.00
23616;BME280;11985;49.404;7.734;2022-11-20T08:36:56;96786.31;;;5.65;100.00
23616;BME280;11985;49.404;7.734;2022-11-20T08:41:58;96788.56;;;5.68;100.00
23616;BME280;11985;49.404;7.734;2022-11-20T08:47:01;96789.56;;;5.67;100.00
23616;BME280;11985;49.404;7.734;2022-11-20T08:52:02;96784.97;;;5.69;100.00
23616;BME280;11985;49.404;7.734;2022-11-20T08:57:04;96789.56;;;5.67;100.00
23616;BME280;11985;49.404;7.734;2022-11-20T09:02:07;96799.28;;;5.73;100.00
23616;BME280;11985;49.404;7.734;2022-11-20T09:07:09;96803.50;;;5.74;100.00
23616;BME280;11985;49.404;7.734;2022-11-20T09:12:11;96808.38;;;5.77;100.00
23616;BME280;11985;49.404;7.734;2022-11-20T09:17:14;96815.88;;;5.87;100.00
23616;BME280;11985;49.404;7.734;2022-11-20T09:22:15;96823.91;;;5.86;100.00
23616;BME280;11985;49.404;7.734;2022-11-20T09:27:17;96821.44;;;5.77;100.00
23616;BME280;11985;49.404;7.734;2022-11-20T09:32:22;96821.44;;;5.77;100.00
23616;BME280;11985;49.404;7.734;2022-11-20T09:37:24;96818.56;;;5.72;100.00
23616;BME280;11985;49.404;7.734;2022-11-20T09:42:35;96815.31;;;5.70;100.00
23616;BME280;11985;49.404;7.734;2022-11-20T09:47:51;96812.63;;;5.64;100.00
23616;BME280;11985;49.404;7.734;2022-11-20T09:53:04;96825.00;;;5.55;100.00
23616;BME280;11985;49.404;7.734;2022-11-20T09:58:15;96819.53;;;5.50;100.00
23616;BME280;11985;49.404;7.734;2022-11-20T10:03:36;96836.50;;;5.39;100.00
23616;BME280;11985;49.404;7.734;2022-11-20T10:08:43;96828.72;;;5.46;100.00
23616;BME280;11985;49.404;7.734;2022-11-20T10:13:53;96832.66;;;5.56;100.00
23616;BME280;11985;49.404;7.734;2022-11-20T10:19:10;96820.34;;;5.72;100.00
23616;BME280;11985;49.404;7.734;2022-11-20T10:29:53;96810.47;;;5.67;100.00
23616;BME280;11985;49.404;7.734;2022-11-20T10:35:02;96808.41;;;5.63;100.00
23616;BME280;11985;49.404;7.734;2022-11-20T10:40:18;96804.66;;;5.72;100.00
23616;BME280;11985;49.404;7.734;2022-11-20T10:45:32;96797.06;;;5.92;100.00
23616;BME280;11985;49.404;7.734;2022-11-20T10:50:42;96785.47;;;6.22;100.00
23616;BME280;11985;49.404;7.734;2022-11-20T10:55:53;96780.00;;;6.17;100.00
23616;BME280;11985;49.404;7.734;2022-11-20T11:01:03;96787.53;;;6.05;100.00
23616;BME280;11985;49.404;7.734;2022-11-20T11:06:10;96784.47;;;6.23;100.00
23616;BME280;11985;49.404;7.734;2022-11-20T11:11:21;96776.03;;;6.56;100.00
23616;BME280;11985;49.404;7.734;2022-11-20T11:16:25;96772.16;;;6.52;100.00
23616;BME280;11985;49.404;7.734;2022-11-20T11:21:28;96770.75;;;6.21;100.00
23616;BME280;11985;49.404;7.734;2022-11-20T11:26:30;96771.53;;;5.94;100.00
23616;BME280;11985;49.404;7.734;2022-11-20T11:31:33;96759.94;;;5.81;100.00
23616;BME280;11985;49.404;7.734;2022-11-20T11:36:37;96756.28;;;5.76;100.00
23616;BME280;11985;49.404;7.734;2022-11-20T11:41:39;96745.41;;;5.72;100.00
23616;BME280;11985;49.404;7.734;2022-11-20T11:46:49;96747.38;;;5.70;100.00
23616;BME280;11985;49.404;7.734;2022-11-20T11:52:02;96741.78;;;5.73;100.00
23616;BME280;11985;49.404;7.734;2022-11-20T11:57:17;96745.81;;;5.76;100.00
23616;BME280;11985;49.404;7.734;2022-11-20T12:02:42;96731.97;;;5.97;100.00
23616;BME280;11985;49.404;7.734;2022-11-20T12:07:54;96725.47;;;6.21;100.00
23616;BME280;11985;49.404;7.734;2022-11-20T12:13:01;96729.00;;;6.34;100.00
23616;BME280;11985;49.404;7.734;2022-11-20T12:18:19;96732.88;;;6.39;100.00
23616;BME280;11985;49.404;7.734;2022-11-20T12:23:27;96733.84;;;6.38;100.00
23616;BME280;11985;49.404;7.734;2022-11-20T12:28:40;96726.94;;;6.23;100.00
23616;BME280;11985;49.404;7.734;2022-11-20T12:34:04;96708.63;;;6.23;100.00
23616;BME280;11985;49.404;7.734;2022-11-20T12:39:25;96713.22;;;6.21;100.00
23616;BME280;11985;49.404;7.734;2022-11-20T12:44:44;96707.25;;;6.27;100.00
23616;BME280;11985;49.404;7.734;2022-11-20T12:50:15;96691.56;;;6.27;100.00
23616;BME280;11985;49.404;7.734;2022-11-20T12:55:31;96701.25;;;6.33;100.00
23616;BME280;11985;49.404;7.734;2022-11-20T13:00:36;96701.00;;;6.28;100.00
23616;BME280;11985;49.404;7.734;2022-11-20T13:05:51;96701.00;;;6.28;100.00
23616;BME280;11985;49.404;7.734;2022-11-20T13:11:02;96689.59;;;6.43;100.00
23616;BME280;11985;49.404;7.734;2022-11-20T13:16:12;96693.44;;;6.40;96.44
23616;BME280;11985;49.404;7.734;2022-11-20T13:21:36;96678.34;;;6.42;95.86
23616;BME280;11985;49.404;7.734;2022-11-20T13:26:39;96677.38;;;6.50;93.58
23616;BME280;11985;49.404;7.734;2022-11-20T13:31:44;96666.72;;;6.51;93.06
23616;BME280;11985;49.404;7.734;2022-11-20T13:36:51;96660.72;;;6.64;93.58
23616;BME280;11985;49.404;7.734;2022-11-20T13:41:59;96643.00;;;6.66;92.80
23616;BME280;11985;49.404;7.734;2022-11-20T13:47:01;96651.66;;;6.60;93.55
23616;BME280;11985;49.404;7.734;2022-11-20T13:52:17;96639.13;;;6.49;94.17
23616;BME280;11985;49.404;7.734;2022-11-20T13:57:45;96626.81;;;6.36;93.76
23616;BME280;11985;49.404;7.734;2022-11-20T14:02:59;96621.75;;;6.28;94.84
23616;BME280;11985;49.404;7.734;2022-11-20T14:08:03;96618.84;;;6.16;95.03
23616;BME280;11985;49.404;7.734;2022-11-20T14:13:15;96628.47;;;6.09;95.97
23616;BME280;11985;49.404;7.734;2022-11-20T14:18:20;96621.41;;;6.03;97.43
23616;BME280;11985;49.404;7.734;2022-11-20T14:23:26;96612.19;;;6.07;97.55
23616;BME280;11985;49.404;7.734;2022-11-20T14:28:30;96613.84;;;6.21;98.11
23616;BME280;11985;49.404;7.734;2022-11-20T14:33:33;96597.94;;;6.16;96.87
23616;BME280;11985;49.404;7.734;2022-11-20T14:38:36;96594.09;;;6.05;96.17
23616;BME280;11985;49.404;7.734;2022-11-20T14:43:45;96595.25;;;6.03;98.20
23616;BME280;11985;49.404;7.734;2022-11-20T14:48:50;96583.00;;;6.03;98.40
23616;BME280;11985;49.404;7.734;2022-11-20T14:53:52;96576.53;;;5.99;98.68
23616;BME280;11985;49.404;7.734;2022-11-20T14:58:58;96576.88;;;5.90;98.57
23616;BME280;11985;49.404;7.734;2022-11-20T15:04:01;96580.25;;;5.83;98.77
23616;BME280;11985;49.404;7.734;2022-11-20T15:09:04;96577.41;;;5.78;99.58
23616;BME280;11985;49.404;7.734;2022-11-20T15:14:09;96579.41;;;5.76;100.00
23616;BME280;11985;49.404;7.734;2022-11-20T15:19:17;96584.38;;;5.71;99.74
23616;BME280;11985;49.404;7.734;2022-11-20T15:24:19;96579.13;;;5.65;99.80
23616;BME280;11985;49.404;7.734;2022-11-20T15:29:23;96565.94;;;5.73;99.28
23616;BME280;11985;49.404;7.734;2022-11-20T15:34:26;96568.00;;;5.84;99.97
23616;BME280;11985;49.404;7.734;2022-11-20T15:39:28;96560.97;;;5.85;98.76
23616;BME280;11985;49.404;7.734;2022-11-20T15:44:31;96557.78;;;5.89;99.56
23616;BME280;11985;49.404;7.734;2022-11-20T15:49:32;96545.88;;;5.87;99.42
23616;BME280;11985;49.404;7.734;2022-11-20T15:54:34;96544.03;;;5.74;99.53
23616;BME280;11985;49.404;7.734;2022-11-20T15:59:36;96532.91;;;5.65;100.00
23616;BME280;11985;49.404;7.734;2022-11-20T16:04:40;96527.00;;;5.50;100.00
23616;BME280;11985;49.404;7.734;2022-11-20T16:09:42;96524.16;;;5.45;100.00
23616;BME280;11985;49.404;7.734;2022-11-20T16:14:44;96511.66;;;5.40;100.00
23616;BME280;11985;49.404;7.734;2022-11-20T16:20:04;96508.38;;;5.32;100.00
23616;BME280;11985;49.404;7.734;2022-11-20T16:25:06;96501.56;;;5.30;100.00
23616;BME280;11985;49.404;7.734;2022-11-20T16:30:10;96497.34;;;5.29;100.00
23616;BME280;11985;49.404;7.734;2022-11-20T16:35:12;96496.06;;;5.19;100.00
23616;BME280;11985;49.404;7.734;2022-11-20T16:40:14;96498.63;;;5.12;100.00
23616;BME280;11985;49.404;7.734;2022-11-20T16:45:17;96483.34;;;5.09;100.00
23616;BME280;11985;49.404;7.734;2022-11-20T16:50:19;96478.88;;;5.03;100.00
23616;BME280;11985;49.404;7.734;2022-11-20T16:55:20;96472.06;;;5.02;100.00
23616;BME280;11985;49.404;7.734;2022-11-20T17:00:23;96471.63;;;4.98;100.00
23616;BME280;11985;49.404;7.734;2022-11-20T17:05:27;96480.00;;;4.94;100.00
23616;BME280;11985;49.404;7.734;2022-11-20T17:10:29;96460.09;;;4.86;100.00
23616;BME280;11985;49.404;7.734;2022-11-20T17:15:32;96463.66;;;4.79;100.00
23616;BME280;11985;49.404;7.734;2022-11-20T17:20:34;96470.22;;;4.74;100.00
23616;BME280;11985;49.404;7.734;2022-11-20T17:25:35;96453.09;;;4.65;100.00
23616;BME280;11985;49.404;7.734;2022-11-20T17:30:38;96454.25;;;4.56;100.00
23616;BME280;11985;49.404;7.734;2022-11-20T17:35:40;96454.47;;;4.61;100.00
23616;BME280;11985;49.404;7.734;2022-11-20T17:40:41;96451.25;;;4.59;100.00
23616;BME280;11985;49.404;7.734;2022-11-20T17:45:44;96454.09;;;4.64;100.00
23616;BME280;11985;49.404;7.734;2022-11-20T17:50:46;96457.22;;;4.53;100.00
23616;BME280;11985;49.404;7.734;2022-11-20T17:55:54;96443.81;;;4.35;100.00
23616;BME280;11985;49.404;7.734;2022-11-20T18:01:15;96431.22;;;4.17;100.00
23616;BME280;11985;49.404;7.734;2022-11-20T18:06:21;96435.38;;;4.11;100.00
23616;BME280;11985;49.404;7.734;2022-11-20T18:11:25;96430.25;;;4.03;100.00
23616;BME280;11985;49.404;7.734;2022-11-20T18:16:32;96436.22;;;3.97;100.00
23616;BME280;11985;49.404;7.734;2022-11-20T18:21:34;96416.31;;;3.89;100.00
23616;BME280;11985;49.404;7.734;2022-11-20T18:26:36;96409.66;;;3.87;100.00
23616;BME280;11985;49.404;7.734;2022-11-20T18:31:40;96416.84;;;3.85;100.00
23616;BME280;11985;49.404;7.734;2022-11-20T18:36:41;96411.63;;;3.85;100.00
23616;BME280;11985;49.404;7.734;2022-11-20T18:41:44;96420.44;;;3.84;100.00
23616;BME280;11985;49.404;7.734;2022-11-20T18:47:07;96403.94;;;3.77;100.00
23616;BME280;11985;49.404;7.734;2022-11-20T18:52:10;96402.69;;;3.73;100.00
23616;BME280;11985;49.404;7.734;2022-11-20T18:57:12;96401.50;;;3.75;100.00
23616;BME280;11985;49.404;7.734;2022-11-20T19:02:18;96397.09;;;3.76;100.00
23616;BME280;11985;49.404;7.734;2022-11-20T19:07:20;96383.09;;;3.77;100.00
23616;BME280;11985;49.404;7.734;2022-11-20T19:12:22;96388.28;;;3.77;100.00
23616;BME280;11985;49.404;7.734;2022-11-20T19:17:25;96390.81;;;3.85;100.00
23616;BME280;11985;49.404;7.734;2022-11-20T19:22:26;96401.47;;;3.90;100.00
23616;BME280;11985;49.404;7.734;2022-11-20T19:27:28;96404.94;;;3.97;100.00
23616;BME280;11985;49.404;7.734;2022-11-20T19:32:31;96407.88;;;4.09;100.00
23616;BME280;11985;49.404;7.734;2022-11-20T19:37:34;96404.72;;;4.13;100.00
23616;BME280;11985;49.404;7.734;2022-11-20T19:42:36;96396.09;;;4.13;100.00
23616;BME280;11985;49.404;7.734;2022-11-20T19:47:39;96401.50;;;4.11;100.00
23616;BME280;11985;49.404;7.734;2022-11-20T19:52:41;96403.22;;;4.04;100.00
23616;BME280;11985;49.404;7.734;2022-11-20T19:57:42;96414.28;;;4.06;100.00
23616;BME280;11985;49.404;7.734;2022-11-20T20:02:46;96413.53;;;4.12;100.00
23616;BME280;11985;49.404;7.734;2022-11-20T20:07:47;96417.94;;;4.12;100.00
23616;BME280;11985;49.404;7.734;2022-11-20T20:12:49;96422.94;;;4.13;100.00
23616;BME280;11985;49.404;7.734;2022-11-20T20:17:52;96422.41;;;4.18;100.00
23616;BME280;11985;49.404;7.734;2022-11-20T20:22:53;96433.44;;;4.20;100.00
23616;BME280;11985;49.404;7.734;2022-11-20T20:27:55;96426.41;;;4.20;100.00
23616;BME280;11985;49.404;7.734;2022-11-20T20:32:58;96429.28;;;4.26;100.00
23616;BME280;11985;49.404;7.734;2022-11-20T20:37:59;96428.53;;;4.32;100.00
23616;BME280;11985;49.404;7.734;2022-11-20T20:43:01;96422.41;;;4.39;100.00
23616;BME280;11985;49.404;7.734;2022-11-20T20:48:05;96430.28;;;4.46;100.00
23616;BME280;11985;49.404;7.734;2022-11-20T20:53:06;96428.66;;;4.45;100.00
23616;BME280;11985;49.404;7.734;2022-11-20T20:58:08;96430.22;;;4.39;100.00
23616;BME280;11985;49.404;7.734;2022-11-20T21:03:11;96443.06;;;4.41;100.00
23616;BME280;11985;49.404;7.734;2022-11-20T21:08:12;96444.31;;;4.45;100.00
23616;BME280;11985;49.404;7.734;2022-11-20T21:13:24;96440.94;;;4.51;100.00
23616;BME280;11985;49.404;7.734;2022-11-20T21:18:27;96454.00;;;4.51;100.00
23616;BME280;11985;49.404;7.734;2022-11-20T21:23:29;96444.16;;;4.53;100.00
23616;BME280;11985;49.404;7.734;2022-11-20T21:28:32;96442.00;;;4.57;100.00
23616;BME280;11985;49.404;7.734;2022-11-20T21:33:37;96429.13;;;4.55;100.00
23616;BME280;11985;49.404;7.734;2022-11-20T21:38:39;96432.75;;;4.54;100.00
23616;BME280;11985;49.404;7.734;2022-11-20T21:43:40;96426.75;;;4.60;100.00
23616;BME280;11985;49.404;7.734;2022-11-20T21:48:45;96424.00;;;4.62;100.00
23616;BME280;11985;49.404;7.734;2022-11-20T21:53:48;96416.16;;;4.62;100.00
23616;BME280;11985;49.404;7.734;2022-11-20T21:58:50;96403.25;;;4.54;100.00
23616;BME280;11985;49.404;7.734;2022-11-20T22:03:55;96398.97;;;4.46;100.00
23616;BME280;11985;49.404;7.734;2022-11-20T22:08:57;96408.16;;;4.42;100.00
23616;BME280;11985;49.404;7.734;2022-11-20T22:13:59;96425.06;;;4.46;100.00
23616;BME280;11985;49.404;7.734;2022-11-20T22:19:20;96413.69;;;4.54;100.00
23616;BME280;11985;49.404;7.734;2022-11-20T22:24:22;96406.84;;;4.53;100.00
23616;BME280;11985;49.404;7.734;2022-11-20T22:29:24;96403.19;;;4.47;100.00
23616;BME280;11985;49.404;7.734;2022-11-20T22:34:27;96413.63;;;4.47;100.00
23616;BME280;11985;49.404;7.734;2022-11-20T22:39:28;96407.22;;;4.49;100.00
23616;BME280;11985;49.404;7.734;2022-11-20T22:44:30;96412.28;;;4.51;100.00
23616;BME280;11985;49.404;7.734;2022-11-20T22:49:33;96412.88;;;4.53;100.00
23616;BME280;11985;49.404;7.734;2022-11-20T22:54:34;96420.69;;;4.53;100.00
23616;BME280;11985;49.404;7.734;2022-11-20T22:59:36;96421.13;;;4.57;100.00
23616;BME280;11985;49.404;7.734;2022-11-20T23:04:39;96423.06;;;4.48;100.00
23616;BME280;11985;49.404;7.734;2022-11-20T23:09:40;96410.59;;;4.43;100.00
23616;BME280;11985;49.404;7.734;2022-11-20T23:14:42;96412.53;;;4.35;100.00
23616;BME280;11985;49.404;7.734;2022-11-20T23:19:45;96407.50;;;4.33;100.00
23616;BME280;11985;49.404;7.734;2022-11-20T23:24:46;96402.22;;;4.27;100.00
23616;BME280;11985;49.404;7.734;2022-11-20T23:29:48;96403.97;;;4.19;100.00
23616;BME280;11985;49.404;7.734;2022-11-20T23:34:54;96399.81;;;4.25;100.00
23616;BME280;11985;49.404;7.734;2022-11-20T23:39:55;96403.84;;;4.28;100.00
23616;BME280;11985;49.404;7.734;2022-11-20T23:44:57;96402.84;;;4.29;100.00
23616;BME280;11985;49.404;7.734;2022-11-20T23:50:00;96407.69;;;4.32;100.00
23616;BME280;11985;49.404;7.734;2022-11-20T23:55:02;96405.88;;;4.32;100.00
